sensor_id;sensor_type;location;lat;lon;timestamp;P1;durP1;ratioP1;P2;durP2;ratioP2
6642;SDS011;3357;48.050;7.800;2023-03-01T00:01:47;20.33;;;10.00;;
6642;SDS011;3357;48.050;7.800;2023-03-01T00:04:13;22.47;;;11.27;;
6642;SDS011;3357;48.050;7.800;2023-03-01T00:06:38;17.00;;;10.03;;
6642;SDS011;3357;48.050;7.800;2023-03-01T00:09:03;21.70;;;9.57;;
6642;SDS011;3357;48.050;7.800;2023-03-01T00:11:30;17.07;;;9.63;;
6642;SDS011;3357;48.050;7.800;2023-03-01T00:13:57;19.50;;;10.43;;
6642;SDS011;3357;48.050;7.800;2023-03-01T00:16:42;18.43;;;9.93;;
6642;SDS011;3357;48.050;7.800;2023-03-01T00:19:15;18.10;;;9.17;;
6642;SDS011;3357;48.050;7.800;2023-03-01T00:21:42;20.00;;;10.73;;
6642;SDS011;3357;48.050;7.800;2023-03-01T00:24:07;17.03;;;9.10;;
6642;SDS011;3357;48.050;7.800;2023-03-01T00:26:33;19.70;;;10.70;;
6642;SDS011;3357;48.050;7.800;2023-03-01T00:28:59;19.80;;;10.13;;
6642;SDS011;3357;48.050;7.800;2023-03-01T00:31:26;17.80;;;10.37;;
6642;SDS011;3357;48.050;7.800;2023-03-01T00:33:54;16.60;;;9.10;;
6642;SDS011;3357;48.050;7.800;2023-03-01T00:36:22;18.27;;;9.10;;
6642;SDS011;3357;48.050;7.800;2023-03-01T00:38:48;20.03;;;9.67;;
6642;SDS011;3357;48.050;7.800;2023-03-01T00:41:14;15.13;;;9.30;;
6642;SDS011;3357;48.050;7.800;2023-03-01T00:43:41;19.10;;;9.97;;
6642;SDS011;3357;48.050;7.800;2023-03-01T00:46:08;16.70;;;9.40;;
6642;SDS011;3357;48.050;7.800;2023-03-01T00:48:35;18.93;;;10.10;;
6642;SDS011;3357;48.050;7.800;2023-03-01T00:51:07;21.57;;;10.80;;
6642;SDS011;3357;48.050;7.800;2023-03-01T00:53:34;21.80;;;11.00;;
6642;SDS011;3357;48.050;7.800;2023-03-01T00:56:00;18.80;;;9.70;;
6642;SDS011;3357;48.050;7.800;2023-03-01T00:58:26;15.97;;;9.43;;
6642;SDS011;3357;48.050;7.800;2023-03-01T01:00:51;22.63;;;10.60;;
6642;SDS011;3357;48.050;7.800;2023-03-01T01:03:17;21.07;;;9.97;;
6642;SDS011;3357;48.050;7.800;2023-03-01T01:05:43;17.07;;;9.63;;
6642;SDS011;3357;48.050;7.800;2023-03-01T01:08:08;17.30;;;9.47;;
6642;SDS011;3357;48.050;7.800;2023-03-01T01:10:34;15.60;;;8.40;;
6642;SDS011;3357;48.050;7.800;2023-03-01T01:12:59;17.50;;;8.93;;
6642;SDS011;3357;48.050;7.800;2023-03-01T01:15:25;14.87;;;8.10;;
6642;SDS011;3357;48.050;7.800;2023-03-01T01:17:50;18.37;;;9.23;;
6642;SDS011;3357;48.050;7.800;2023-03-01T01:20:16;16.27;;;8.13;;
6642;SDS011;3357;48.050;7.800;2023-03-01T01:22:41;20.13;;;9.53;;
6642;SDS011;3357;48.050;7.800;2023-03-01T01:25:06;16.00;;;9.70;;
6642;SDS011;3357;48.050;7.800;2023-03-01T01:27:32;14.20;;;8.93;;
6642;SDS011;3357;48.050;7.800;2023-03-01T01:29:57;14.70;;;9.27;;
6642;SDS011;3357;48.050;7.800;2023-03-01T01:32:23;21.30;;;10.30;;
6642;SDS011;3357;48.050;7.800;2023-03-01T01:34:48;20.33;;;9.23;;
6642;SDS011;3357;48.050;7.800;2023-03-01T01:37:13;15.20;;;9.13;;
6642;SDS011;3357;48.050;7.800;2023-03-01T01:39:39;20.03;;;8.63;;
6642;SDS011;3357;48.050;7.800;2023-03-01T01:42:04;17.30;;;9.43;;
6642;SDS011;3357;48.050;7.800;2023-03-01T01:44:29;13.63;;;8.77;;
6642;SDS011;3357;48.050;7.800;2023-03-01T01:49:38;15.07;;;8.10;;
6642;SDS011;3357;48.050;7.800;2023-03-01T01:57:06;15.87;;;9.77;;
6642;SDS011;3357;48.050;7.800;2023-03-01T01:59:34;14.83;;;8.77;;
6642;SDS011;3357;48.050;7.800;2023-03-01T02:02:00;17.43;;;9.00;;
6642;SDS011;3357;48.050;7.800;2023-03-01T02:04:27;16.27;;;7.70;;
6642;SDS011;3357;48.050;7.800;2023-03-01T02:07:01;18.33;;;9.30;;
6642;SDS011;3357;48.050;7.800;2023-03-01T02:09:29;12.60;;;7.60;;
6642;SDS011;3357;48.050;7.800;2023-03-01T02:11:55;15.30;;;8.53;;
6642;SDS011;3357;48.050;7.800;2023-03-01T02:14:20;15.23;;;9.00;;
6642;SDS011;3357;48.050;7.800;2023-03-01T02:16:46;12.90;;;8.30;;
6642;SDS011;3357;48.050;7.800;2023-03-01T02:19:14;14.07;;;8.97;;
6642;SDS011;3357;48.050;7.800;2023-03-01T02:22:07;13.30;;;8.33;;
6642;SDS011;3357;48.050;7.800;2023-03-01T02:24:55;15.90;;;9.00;;
6642;SDS011;3357;48.050;7.800;2023-03-01T02:27:26;14.57;;;8.47;;
6642;SDS011;3357;48.050;7.800;2023-03-01T02:29:58;14.80;;;8.80;;
6642;SDS011;3357;48.050;7.800;2023-03-01T02:32:23;14.20;;;8.33;;
6642;SDS011;3357;48.050;7.800;2023-03-01T02:34:51;15.17;;;8.37;;
6642;SDS011;3357;48.050;7.800;2023-03-01T02:37:18;14.57;;;8.30;;
6642;SDS011;3357;48.050;7.800;2023-03-01T02:39:50;14.23;;;8.43;;
6642;SDS011;3357;48.050;7.800;2023-03-01T02:42:23;14.37;;;8.03;;
6642;SDS011;3357;48.050;7.800;2023-03-01T02:44:53;15.83;;;9.17;;
6642;SDS011;3357;48.050;7.800;2023-03-01T02:47:18;16.37;;;9.10;;
6642;SDS011;3357;48.050;7.800;2023-03-01T02:49:44;15.97;;;9.17;;
6642;SDS011;3357;48.050;7.800;2023-03-01T02:57:29;14.40;;;8.53;;
6642;SDS011;3357;48.050;7.800;2023-03-01T02:59:56;16.57;;;8.87;;
6642;SDS011;3357;48.050;7.800;2023-03-01T03:05:03;16.07;;;9.20;;
6642;SDS011;3357;48.050;7.800;2023-03-01T03:07:31;14.13;;;8.77;;
6642;SDS011;3357;48.050;7.800;2023-03-01T03:09:57;17.07;;;8.30;;
6642;SDS011;3357;48.050;7.800;2023-03-01T03:12:22;16.93;;;9.10;;
6642;SDS011;3357;48.050;7.800;2023-03-01T03:14:47;16.93;;;9.80;;
6642;SDS011;3357;48.050;7.800;2023-03-01T03:17:12;17.40;;;9.10;;
6642;SDS011;3357;48.050;7.800;2023-03-01T03:19:37;21.53;;;9.77;;
6642;SDS011;3357;48.050;7.800;2023-03-01T03:22:03;16.20;;;9.30;;
6642;SDS011;3357;48.050;7.800;2023-03-01T03:24:28;18.20;;;9.03;;
6642;SDS011;3357;48.050;7.800;2023-03-01T03:27:02;14.90;;;8.90;;
6642;SDS011;3357;48.050;7.800;2023-03-01T03:29:28;17.00;;;9.13;;
6642;SDS011;3357;48.050;7.800;2023-03-01T03:31:53;16.67;;;9.20;;
6642;SDS011;3357;48.050;7.800;2023-03-01T03:34:18;14.87;;;8.93;;
6642;SDS011;3357;48.050;7.800;2023-03-01T03:36:44;13.57;;;8.67;;
6642;SDS011;3357;48.050;7.800;2023-03-01T03:39:09;15.03;;;9.07;;
6642;SDS011;3357;48.050;7.800;2023-03-01T03:41:34;16.33;;;9.23;;
6642;SDS011;3357;48.050;7.800;2023-03-01T03:44:00;17.00;;;9.30;;
6642;SDS011;3357;48.050;7.800;2023-03-01T03:46:25;19.13;;;9.53;;
6642;SDS011;3357;48.050;7.800;2023-03-01T03:48:50;13.33;;;8.63;;
6642;SDS011;3357;48.050;7.800;2023-03-01T03:51:16;14.13;;;8.50;;
6642;SDS011;3357;48.050;7.800;2023-03-01T03:53:43;16.63;;;8.57;;
6642;SDS011;3357;48.050;7.800;2023-03-01T03:56:09;19.70;;;9.00;;
6642;SDS011;3357;48.050;7.800;2023-03-01T03:58:34;16.33;;;8.50;;
6642;SDS011;3357;48.050;7.800;2023-03-01T04:00:59;15.30;;;9.27;;
6642;SDS011;3357;48.050;7.800;2023-03-01T04:03:25;19.20;;;9.27;;
6642;SDS011;3357;48.050;7.800;2023-03-01T04:05:51;17.40;;;10.13;;
6642;SDS011;3357;48.050;7.800;2023-03-01T04:08:18;16.57;;;9.93;;
6642;SDS011;3357;48.050;7.800;2023-03-01T04:10:48;18.27;;;8.57;;
6642;SDS011;3357;48.050;7.800;2023-03-01T04:13:16;15.13;;;9.50;;
6642;SDS011;3357;48.050;7.800;2023-03-01T04:15:44;13.90;;;8.63;;
6642;SDS011;3357;48.050;7.800;2023-03-01T04:18:12;16.10;;;8.47;;
6642;SDS011;3357;48.050;7.800;2023-03-01T04:20:38;16.20;;;9.13;;
6642;SDS011;3357;48.050;7.800;2023-03-01T04:23:05;15.73;;;8.70;;
6642;SDS011;3357;48.050;7.800;2023-03-01T04:28:21;19.90;;;9.43;;
6642;SDS011;3357;48.050;7.800;2023-03-01T04:30:49;21.30;;;9.17;;
6642;SDS011;3357;48.050;7.800;2023-03-01T04:33:15;15.03;;;9.20;;
6642;SDS011;3357;48.050;7.800;2023-03-01T04:35:40;14.30;;;8.70;;
6642;SDS011;3357;48.050;7.800;2023-03-01T04:38:05;19.50;;;9.17;;
6642;SDS011;3357;48.050;7.800;2023-03-01T04:40:31;17.80;;;9.63;;
6642;SDS011;3357;48.050;7.800;2023-03-01T04:42:56;18.83;;;9.73;;
6642;SDS011;3357;48.050;7.800;2023-03-01T04:45:21;20.53;;;10.43;;
6642;SDS011;3357;48.050;7.800;2023-03-01T04:47:47;13.07;;;8.23;;
6642;SDS011;3357;48.050;7.800;2023-03-01T04:50:13;18.50;;;9.40;;
6642;SDS011;3357;48.050;7.800;2023-03-01T04:52:45;14.17;;;8.50;;
6642;SDS011;3357;48.050;7.800;2023-03-01T04:55:11;14.33;;;8.70;;
6642;SDS011;3357;48.050;7.800;2023-03-01T04:57:36;14.97;;;9.60;;
6642;SDS011;3357;48.050;7.800;2023-03-01T05:00:02;14.13;;;8.00;;
6642;SDS011;3357;48.050;7.800;2023-03-01T05:02:44;15.70;;;9.03;;
6642;SDS011;3357;48.050;7.800;2023-03-01T05:05:19;17.23;;;9.53;;
6642;SDS011;3357;48.050;7.800;2023-03-01T05:07:45;16.47;;;9.50;;
6642;SDS011;3357;48.050;7.800;2023-03-01T05:10:10;21.27;;;11.00;;
6642;SDS011;3357;48.050;7.800;2023-03-01T05:12:36;16.30;;;9.47;;
6642;SDS011;3357;48.050;7.800;2023-03-01T05:15:02;20.13;;;9.90;;
6642;SDS011;3357;48.050;7.800;2023-03-01T05:17:31;16.50;;;9.40;;
6642;SDS011;3357;48.050;7.800;2023-03-01T05:19:57;13.17;;;8.67;;
6642;SDS011;3357;48.050;7.800;2023-03-01T05:22:24;18.90;;;9.40;;
6642;SDS011;3357;48.050;7.800;2023-03-01T05:24:50;13.10;;;8.70;;
6642;SDS011;3357;48.050;7.800;2023-03-01T05:27:15;22.33;;;9.30;;
6642;SDS011;3357;48.050;7.800;2023-03-01T05:29:40;14.00;;;9.33;;
6642;SDS011;3357;48.050;7.800;2023-03-01T05:32:05;18.20;;;9.20;;
6642;SDS011;3357;48.050;7.800;2023-03-01T05:34:32;16.50;;;10.13;;
6642;SDS011;3357;48.050;7.800;2023-03-01T05:36:59;14.43;;;8.57;;
6642;SDS011;3357;48.050;7.800;2023-03-01T05:39:25;16.13;;;8.60;;
6642;SDS011;3357;48.050;7.800;2023-03-01T05:41:57;16.67;;;9.37;;
6642;SDS011;3357;48.050;7.800;2023-03-01T05:44:24;14.40;;;9.17;;
6642;SDS011;3357;48.050;7.800;2023-03-01T05:46:50;11.67;;;7.90;;
6642;SDS011;3357;48.050;7.800;2023-03-01T05:49:16;19.90;;;9.20;;
6642;SDS011;3357;48.050;7.800;2023-03-01T05:51:47;20.87;;;10.33;;
6642;SDS011;3357;48.050;7.800;2023-03-01T05:54:14;14.80;;;8.50;;
6642;SDS011;3357;48.050;7.800;2023-03-01T05:56:39;16.27;;;8.40;;
6642;SDS011;3357;48.050;7.800;2023-03-01T05:59:04;17.83;;;9.57;;
6642;SDS011;3357;48.050;7.800;2023-03-01T06:01:30;17.63;;;10.13;;
6642;SDS011;3357;48.050;7.800;2023-03-01T06:03:56;16.90;;;9.20;;
6642;SDS011;3357;48.050;7.800;2023-03-01T06:06:22;17.53;;;9.80;;
6642;SDS011;3357;48.050;7.800;2023-03-01T06:08:48;15.70;;;9.53;;
6642;SDS011;3357;48.050;7.800;2023-03-01T06:11:14;16.77;;;9.37;;
6642;SDS011;3357;48.050;7.800;2023-03-01T06:13:40;16.63;;;9.73;;
6642;SDS011;3357;48.050;7.800;2023-03-01T06:16:06;14.60;;;9.87;;
6642;SDS011;3357;48.050;7.800;2023-03-01T06:18:32;18.30;;;9.40;;
6642;SDS011;3357;48.050;7.800;2023-03-01T06:20:57;17.63;;;9.40;;
6642;SDS011;3357;48.050;7.800;2023-03-01T06:23:23;19.80;;;9.67;;
6642;SDS011;3357;48.050;7.800;2023-03-01T06:25:49;18.17;;;9.43;;
6642;SDS011;3357;48.050;7.800;2023-03-01T06:28:14;13.83;;;8.80;;
6642;SDS011;3357;48.050;7.800;2023-03-01T06:30:39;17.10;;;9.00;;
6642;SDS011;3357;48.050;7.800;2023-03-01T06:33:05;17.10;;;9.00;;
6642;SDS011;3357;48.050;7.800;2023-03-01T06:35:30;14.67;;;8.40;;
6642;SDS011;3357;48.050;7.800;2023-03-01T06:37:56;20.40;;;9.50;;
6642;SDS011;3357;48.050;7.800;2023-03-01T06:40:22;16.37;;;8.90;;
6642;SDS011;3357;48.050;7.800;2023-03-01T06:42:48;16.00;;;8.80;;
6642;SDS011;3357;48.050;7.800;2023-03-01T06:45:15;15.47;;;9.03;;
6642;SDS011;3357;48.050;7.800;2023-03-01T06:47:40;20.23;;;10.40;;
6642;SDS011;3357;48.050;7.800;2023-03-01T06:50:06;15.33;;;9.50;;
6642;SDS011;3357;48.050;7.800;2023-03-01T06:52:31;14.40;;;8.77;;
6642;SDS011;3357;48.050;7.800;2023-03-01T06:54:57;17.40;;;9.17;;
6642;SDS011;3357;48.050;7.800;2023-03-01T06:57:22;19.13;;;10.87;;
6642;SDS011;3357;48.050;7.800;2023-03-01T06:59:47;16.40;;;9.17;;
6642;SDS011;3357;48.050;7.800;2023-03-01T07:02:13;16.97;;;9.90;;
6642;SDS011;3357;48.050;7.800;2023-03-01T07:04:40;15.67;;;9.20;;
6642;SDS011;3357;48.050;7.800;2023-03-01T07:07:05;16.50;;;9.93;;
6642;SDS011;3357;48.050;7.800;2023-03-01T07:09:30;17.07;;;10.00;;
6642;SDS011;3357;48.050;7.800;2023-03-01T07:11:56;17.13;;;10.07;;
6642;SDS011;3357;48.050;7.800;2023-03-01T07:14:21;18.57;;;10.10;;
6642;SDS011;3357;48.050;7.800;2023-03-01T07:16:49;16.20;;;9.10;;
6642;SDS011;3357;48.050;7.800;2023-03-01T07:19:14;18.60;;;9.80;;
6642;SDS011;3357;48.050;7.800;2023-03-01T07:21:40;15.33;;;8.57;;
6642;SDS011;3357;48.050;7.800;2023-03-01T07:24:06;18.93;;;9.70;;
6642;SDS011;3357;48.050;7.800;2023-03-01T07:26:32;20.83;;;10.57;;
6642;SDS011;3357;48.050;7.800;2023-03-01T07:29:01;17.40;;;10.80;;
6642;SDS011;3357;48.050;7.800;2023-03-01T07:31:27;17.50;;;9.30;;
6642;SDS011;3357;48.050;7.800;2023-03-01T07:33:55;15.07;;;9.40;;
6642;SDS011;3357;48.050;7.800;2023-03-01T07:36:20;17.40;;;10.40;;
6642;SDS011;3357;48.050;7.800;2023-03-01T07:38:46;22.77;;;10.80;;
6642;SDS011;3357;48.050;7.800;2023-03-01T07:41:11;19.10;;;9.80;;
6642;SDS011;3357;48.050;7.800;2023-03-01T07:43:36;20.00;;;9.87;;
6642;SDS011;3357;48.050;7.800;2023-03-01T07:46:02;18.33;;;9.10;;
6642;SDS011;3357;48.050;7.800;2023-03-01T07:48:28;17.30;;;9.93;;
6642;SDS011;3357;48.050;7.800;2023-03-01T07:50:54;18.80;;;10.60;;
6642;SDS011;3357;48.050;7.800;2023-03-01T07:53:20;17.73;;;9.47;;
6642;SDS011;3357;48.050;7.800;2023-03-01T07:55:45;18.83;;;10.53;;
6642;SDS011;3357;48.050;7.800;2023-03-01T07:58:11;18.47;;;10.27;;
6642;SDS011;3357;48.050;7.800;2023-03-01T08:00:36;18.17;;;9.77;;
6642;SDS011;3357;48.050;7.800;2023-03-01T08:03:01;15.00;;;9.30;;
6642;SDS011;3357;48.050;7.800;2023-03-01T08:05:27;20.30;;;9.83;;
6642;SDS011;3357;48.050;7.800;2023-03-01T08:07:53;16.03;;;10.20;;
6642;SDS011;3357;48.050;7.800;2023-03-01T08:10:19;17.63;;;9.90;;
6642;SDS011;3357;48.050;7.800;2023-03-01T08:12:44;20.30;;;10.83;;
6642;SDS011;3357;48.050;7.800;2023-03-01T08:15:09;18.20;;;9.60;;
6642;SDS011;3357;48.050;7.800;2023-03-01T08:17:35;20.17;;;10.30;;
6642;SDS011;3357;48.050;7.800;2023-03-01T08:20:00;15.50;;;9.40;;
6642;SDS011;3357;48.050;7.800;2023-03-01T08:22:26;18.23;;;9.60;;
6642;SDS011;3357;48.050;7.800;2023-03-01T08:24:51;18.67;;;10.50;;
6642;SDS011;3357;48.050;7.800;2023-03-01T08:27:16;20.90;;;10.47;;
6642;SDS011;3357;48.050;7.800;2023-03-01T08:29:41;17.97;;;10.47;;
6642;SDS011;3357;48.050;7.800;2023-03-01T08:32:07;19.47;;;10.10;;
6642;SDS011;3357;48.050;7.800;2023-03-01T08:34:32;22.37;;;11.23;;
6642;SDS011;3357;48.050;7.800;2023-03-01T08:37:00;22.03;;;11.37;;
6642;SDS011;3357;48.050;7.800;2023-03-01T08:39:26;21.20;;;11.50;;
6642;SDS011;3357;48.050;7.800;2023-03-01T08:41:51;17.50;;;10.17;;
6642;SDS011;3357;48.050;7.800;2023-03-01T08:44:16;19.10;;;10.33;;
6642;SDS011;3357;48.050;7.800;2023-03-01T08:46:42;18.73;;;10.83;;
6642;SDS011;3357;48.050;7.800;2023-03-01T08:49:08;17.97;;;10.30;;
6642;SDS011;3357;48.050;7.800;2023-03-01T08:51:36;14.43;;;9.30;;
6642;SDS011;3357;48.050;7.800;2023-03-01T08:54:02;18.37;;;10.70;;
6642;SDS011;3357;48.050;7.800;2023-03-01T08:56:31;20.83;;;11.70;;
6642;SDS011;3357;48.050;7.800;2023-03-01T08:58:57;17.13;;;10.20;;
6642;SDS011;3357;48.050;7.800;2023-03-01T09:01:22;17.07;;;10.60;;
6642;SDS011;3357;48.050;7.800;2023-03-01T09:03:47;16.07;;;10.83;;
6642;SDS011;3357;48.050;7.800;2023-03-01T09:06:13;18.27;;;10.93;;
6642;SDS011;3357;48.050;7.800;2023-03-01T09:08:40;16.60;;;10.60;;
6642;SDS011;3357;48.050;7.800;2023-03-01T09:11:08;24.90;;;12.63;;
6642;SDS011;3357;48.050;7.800;2023-03-01T09:13:35;21.37;;;12.17;;
6642;SDS011;3357;48.050;7.800;2023-03-01T09:16:01;18.20;;;10.40;;
6642;SDS011;3357;48.050;7.800;2023-03-01T09:18:27;15.67;;;10.20;;
6642;SDS011;3357;48.050;7.800;2023-03-01T09:20:52;17.77;;;10.97;;
6642;SDS011;3357;48.050;7.800;2023-03-01T09:23:20;23.50;;;10.87;;
6642;SDS011;3357;48.050;7.800;2023-03-01T09:25:46;21.43;;;11.73;;
6642;SDS011;3357;48.050;7.800;2023-03-01T09:28:11;20.40;;;10.70;;
6642;SDS011;3357;48.050;7.800;2023-03-01T09:30:36;16.60;;;10.00;;
6642;SDS011;3357;48.050;7.800;2023-03-01T09:33:02;18.13;;;10.60;;
6642;SDS011;3357;48.050;7.800;2023-03-01T09:35:27;21.17;;;11.13;;
6642;SDS011;3357;48.050;7.800;2023-03-01T09:37:52;20.30;;;11.40;;
6642;SDS011;3357;48.050;7.800;2023-03-01T09:40:19;17.90;;;10.63;;
6642;SDS011;3357;48.050;7.800;2023-03-01T09:42:50;20.07;;;11.13;;
6642;SDS011;3357;48.050;7.800;2023-03-01T09:45:38;25.80;;;11.17;;
6642;SDS011;3357;48.050;7.800;2023-03-01T09:48:05;17.63;;;10.80;;
6642;SDS011;3357;48.050;7.800;2023-03-01T09:50:39;16.30;;;10.30;;
6642;SDS011;3357;48.050;7.800;2023-03-01T09:53:07;16.90;;;10.13;;
6642;SDS011;3357;48.050;7.800;2023-03-01T09:55:50;18.80;;;11.10;;
6642;SDS011;3357;48.050;7.800;2023-03-01T09:58:42;20.37;;;11.60;;
6642;SDS011;3357;48.050;7.800;2023-03-01T10:01:21;19.03;;;10.40;;
6642;SDS011;3357;48.050;7.800;2023-03-01T10:06:44;26.13;;;10.70;;
6642;SDS011;3357;48.050;7.800;2023-03-01T10:09:15;17.63;;;10.83;;
6642;SDS011;3357;48.050;7.800;2023-03-01T10:11:42;19.83;;;11.97;;
6642;SDS011;3357;48.050;7.800;2023-03-01T10:14:27;23.30;;;10.77;;
6642;SDS011;3357;48.050;7.800;2023-03-01T10:17:08;19.07;;;11.47;;
6642;SDS011;3357;48.050;7.800;2023-03-01T10:19:45;23.00;;;10.67;;
6642;SDS011;3357;48.050;7.800;2023-03-01T10:22:13;22.70;;;11.80;;
6642;SDS011;3357;48.050;7.800;2023-03-01T10:24:39;22.67;;;11.57;;
6642;SDS011;3357;48.050;7.800;2023-03-01T10:27:05;21.63;;;11.67;;
6642;SDS011;3357;48.050;7.800;2023-03-01T10:29:36;23.97;;;12.47;;
6642;SDS011;3357;48.050;7.800;2023-03-01T10:32:04;25.60;;;11.13;;
6642;SDS011;3357;48.050;7.800;2023-03-01T10:34:32;28.50;;;13.30;;
6642;SDS011;3357;48.050;7.800;2023-03-01T10:42:36;18.83;;;11.20;;
6642;SDS011;3357;48.050;7.800;2023-03-01T10:45:15;26.77;;;11.50;;
6642;SDS011;3357;48.050;7.800;2023-03-01T10:47:40;20.43;;;11.43;;
6642;SDS011;3357;48.050;7.800;2023-03-01T10:50:08;22.10;;;11.60;;
6642;SDS011;3357;48.050;7.800;2023-03-01T10:52:44;17.13;;;11.17;;
6642;SDS011;3357;48.050;7.800;2023-03-01T10:55:43;17.50;;;11.13;;
6642;SDS011;3357;48.050;7.800;2023-03-01T10:58:11;20.63;;;11.43;;
6642;SDS011;3357;48.050;7.800;2023-03-01T11:00:56;23.90;;;11.47;;
6642;SDS011;3357;48.050;7.800;2023-03-01T11:03:23;19.47;;;11.97;;
6642;SDS011;3357;48.050;7.800;2023-03-01T11:08:29;28.90;;;12.00;;
6642;SDS011;3357;48.050;7.800;2023-03-01T11:11:23;27.00;;;12.63;;
6642;SDS011;3357;48.050;7.800;2023-03-01T11:16:24;19.83;;;10.50;;
6642;SDS011;3357;48.050;7.800;2023-03-01T11:21:35;21.10;;;11.60;;
6642;SDS011;3357;48.050;7.800;2023-03-01T11:24:02;18.70;;;11.60;;
6642;SDS011;3357;48.050;7.800;2023-03-01T11:26:29;20.90;;;11.87;;
6642;SDS011;3357;48.050;7.800;2023-03-01T11:28:57;24.37;;;12.00;;
6642;SDS011;3357;48.050;7.800;2023-03-01T11:31:23;17.93;;;11.80;;
6642;SDS011;3357;48.050;7.800;2023-03-01T11:39:21;18.33;;;11.70;;
6642;SDS011;3357;48.050;7.800;2023-03-01T11:41:52;24.87;;;13.43;;
6642;SDS011;3357;48.050;7.800;2023-03-01T11:44:26;18.37;;;11.90;;
6642;SDS011;3357;48.050;7.800;2023-03-01T11:49:48;19.07;;;11.90;;
6642;SDS011;3357;48.050;7.800;2023-03-01T11:54:53;19.17;;;11.63;;
6642;SDS011;3357;48.050;7.800;2023-03-01T12:00:30;18.30;;;10.50;;
6642;SDS011;3357;48.050;7.800;2023-03-01T12:03:22;20.90;;;10.90;;
6642;SDS011;3357;48.050;7.800;2023-03-01T12:17:06;15.30;;;9.67;;
6642;SDS011;3357;48.050;7.800;2023-03-01T12:20:00;19.73;;;11.10;;
6642;SDS011;3357;48.050;7.800;2023-03-01T12:22:36;15.50;;;9.73;;
6642;SDS011;3357;48.050;7.800;2023-03-01T12:25:21;19.13;;;10.67;;
6642;SDS011;3357;48.050;7.800;2023-03-01T12:28:04;16.33;;;10.30;;
6642;SDS011;3357;48.050;7.800;2023-03-01T12:38:55;15.90;;;10.60;;
6642;SDS011;3357;48.050;7.800;2023-03-01T12:46:37;18.33;;;10.70;;
6642;SDS011;3357;48.050;7.800;2023-03-01T12:49:12;15.77;;;10.10;;
6642;SDS011;3357;48.050;7.800;2023-03-01T12:51:41;22.77;;;11.87;;
6642;SDS011;3357;48.050;7.800;2023-03-01T12:54:16;18.20;;;10.90;;
6642;SDS011;3357;48.050;7.800;2023-03-01T12:56:45;18.90;;;11.17;;
6642;SDS011;3357;48.050;7.800;2023-03-01T12:59:18;18.40;;;11.43;;
6642;SDS011;3357;48.050;7.800;2023-03-01T13:02:33;17.20;;;11.10;;
6642;SDS011;3357;48.050;7.800;2023-03-01T13:04:53;16.03;;;10.43;;
6642;SDS011;3357;48.050;7.800;2023-03-01T13:18:32;14.93;;;9.53;;
6642;SDS011;3357;48.050;7.800;2023-03-01T13:20:56;17.73;;;9.40;;
6642;SDS011;3357;48.050;7.800;2023-03-01T13:31:03;16.50;;;9.47;;
6642;SDS011;3357;48.050;7.800;2023-03-01T13:33:50;18.63;;;10.40;;
6642;SDS011;3357;48.050;7.800;2023-03-01T13:36:49;14.97;;;9.57;;
6642;SDS011;3357;48.050;7.800;2023-03-01T13:39:28;16.97;;;8.83;;
6642;SDS011;3357;48.050;7.800;2023-03-01T13:41:57;15.13;;;10.23;;
6642;SDS011;3357;48.050;7.800;2023-03-01T13:47:37;13.93;;;9.83;;
6642;SDS011;3357;48.050;7.800;2023-03-01T13:49:51;15.27;;;9.30;;
6642;SDS011;3357;48.050;7.800;2023-03-01T13:54:50;29.87;;;15.00;;
6642;SDS011;3357;48.050;7.800;2023-03-01T13:57:18;20.80;;;11.67;;
6642;SDS011;3357;48.050;7.800;2023-03-01T13:59:47;17.73;;;10.67;;
6642;SDS011;3357;48.050;7.800;2023-03-01T14:02:12;15.93;;;10.53;;
6642;SDS011;3357;48.050;7.800;2023-03-01T14:04:38;14.63;;;9.00;;
6642;SDS011;3357;48.050;7.800;2023-03-01T14:07:09;15.00;;;8.90;;
6642;SDS011;3357;48.050;7.800;2023-03-01T14:09:36;16.73;;;9.20;;
6642;SDS011;3357;48.050;7.800;2023-03-01T14:14:47;20.77;;;12.83;;
6642;SDS011;3357;48.050;7.800;2023-03-01T14:17:23;21.83;;;13.13;;
6642;SDS011;3357;48.050;7.800;2023-03-01T14:22:47;21.17;;;13.73;;
6642;SDS011;3357;48.050;7.800;2023-03-01T14:25:35;23.47;;;13.53;;
6642;SDS011;3357;48.050;7.800;2023-03-01T14:28:18;22.00;;;13.37;;
6642;SDS011;3357;48.050;7.800;2023-03-01T14:30:53;21.70;;;13.37;;
6642;SDS011;3357;48.050;7.800;2023-03-01T14:38:28;20.77;;;13.40;;
6642;SDS011;3357;48.050;7.800;2023-03-01T14:40:57;23.60;;;14.07;;
6642;SDS011;3357;48.050;7.800;2023-03-01T14:43:24;25.47;;;14.60;;
6642;SDS011;3357;48.050;7.800;2023-03-01T14:45:51;26.80;;;14.13;;
6642;SDS011;3357;48.050;7.800;2023-03-01T14:48:16;21.40;;;13.60;;
6642;SDS011;3357;48.050;7.800;2023-03-01T14:50:43;23.00;;;13.90;;
6642;SDS011;3357;48.050;7.800;2023-03-01T14:53:16;22.93;;;12.90;;
6642;SDS011;3357;48.050;7.800;2023-03-01T14:55:44;23.47;;;14.70;;
6642;SDS011;3357;48.050;7.800;2023-03-01T14:58:12;22.43;;;13.97;;
6642;SDS011;3357;48.050;7.800;2023-03-01T15:00:39;22.83;;;14.20;;
6642;SDS011;3357;48.050;7.800;2023-03-01T15:06:06;21.47;;;13.90;;
6642;SDS011;3357;48.050;7.800;2023-03-01T15:08:32;22.33;;;13.57;;
6642;SDS011;3357;48.050;7.800;2023-03-01T15:11:03;25.23;;;14.73;;
6642;SDS011;3357;48.050;7.800;2023-03-01T15:13:38;22.67;;;14.47;;
6642;SDS011;3357;48.050;7.800;2023-03-01T15:16:07;27.77;;;15.10;;
6642;SDS011;3357;48.050;7.800;2023-03-01T15:18:34;24.30;;;16.10;;
6642;SDS011;3357;48.050;7.800;2023-03-01T15:26:40;23.87;;;15.13;;
6642;SDS011;3357;48.050;7.800;2023-03-01T15:29:11;38.53;;;20.57;;
6642;SDS011;3357;48.050;7.800;2023-03-01T15:31:47;38.63;;;20.07;;
6642;SDS011;3357;48.050;7.800;2023-03-01T15:34:38;40.20;;;21.30;;
6642;SDS011;3357;48.050;7.800;2023-03-01T15:37:04;36.40;;;16.63;;
6642;SDS011;3357;48.050;7.800;2023-03-01T15:39:38;39.47;;;18.90;;
6642;SDS011;3357;48.050;7.800;2023-03-01T15:42:09;24.63;;;14.50;;
6642;SDS011;3357;48.050;7.800;2023-03-01T15:44:37;28.97;;;17.83;;
6642;SDS011;3357;48.050;7.800;2023-03-01T15:50:29;32.07;;;17.63;;
6642;SDS011;3357;48.050;7.800;2023-03-01T15:52:57;35.53;;;21.10;;
6642;SDS011;3357;48.050;7.800;2023-03-01T15:55:25;39.57;;;21.07;;
6642;SDS011;3357;48.050;7.800;2023-03-01T15:57:58;27.13;;;15.00;;
6642;SDS011;3357;48.050;7.800;2023-03-01T16:00:25;25.23;;;14.67;;
6642;SDS011;3357;48.050;7.800;2023-03-01T16:02:51;21.97;;;14.33;;
6642;SDS011;3357;48.050;7.800;2023-03-01T16:07:52;31.60;;;14.47;;
6642;SDS011;3357;48.050;7.800;2023-03-01T16:10:19;23.83;;;14.30;;
6642;SDS011;3357;48.050;7.800;2023-03-01T16:12:44;29.57;;;15.07;;
6642;SDS011;3357;48.050;7.800;2023-03-01T16:15:19;27.23;;;15.23;;
6642;SDS011;3357;48.050;7.800;2023-03-01T16:17:46;25.50;;;14.87;;
6642;SDS011;3357;48.050;7.800;2023-03-01T16:20:12;26.00;;;14.80;;
6642;SDS011;3357;48.050;7.800;2023-03-01T16:22:40;29.33;;;16.60;;
6642;SDS011;3357;48.050;7.800;2023-03-01T16:25:06;27.70;;;14.67;;
6642;SDS011;3357;48.050;7.800;2023-03-01T16:27:33;27.23;;;14.60;;
6642;SDS011;3357;48.050;7.800;2023-03-01T16:29:58;27.53;;;15.90;;
6642;SDS011;3357;48.050;7.800;2023-03-01T16:32:23;27.13;;;14.80;;
6642;SDS011;3357;48.050;7.800;2023-03-01T16:34:49;31.60;;;14.27;;
6642;SDS011;3357;48.050;7.800;2023-03-01T16:37:14;25.77;;;15.40;;
6642;SDS011;3357;48.050;7.800;2023-03-01T16:39:40;25.93;;;15.23;;
6642;SDS011;3357;48.050;7.800;2023-03-01T16:42:05;24.07;;;14.50;;
6642;SDS011;3357;48.050;7.800;2023-03-01T16:44:31;21.93;;;13.80;;
6642;SDS011;3357;48.050;7.800;2023-03-01T16:46:56;21.27;;;13.53;;
6642;SDS011;3357;48.050;7.800;2023-03-01T16:49:22;23.40;;;14.03;;
6642;SDS011;3357;48.050;7.800;2023-03-01T16:51:47;24.30;;;14.40;;
6642;SDS011;3357;48.050;7.800;2023-03-01T16:54:12;26.13;;;13.10;;
6642;SDS011;3357;48.050;7.800;2023-03-01T16:56:37;22.97;;;13.50;;
6642;SDS011;3357;48.050;7.800;2023-03-01T16:59:04;29.13;;;14.57;;
6642;SDS011;3357;48.050;7.800;2023-03-01T17:01:30;27.87;;;14.37;;
6642;SDS011;3357;48.050;7.800;2023-03-01T17:04:03;23.40;;;13.67;;
6642;SDS011;3357;48.050;7.800;2023-03-01T17:06:28;31.53;;;17.67;;